Terminal Aerodrome Forecast
Issued by NWS Goodland, KS

Home | Current Version | Previous Version | Text Only | Print | Product List | Glossary On
Versions: 1 2 3 4 5 6 7 8 9 10 11 12 13 14 15 16 17
155
FTUS43 KGLD 100520
TAFGLD
TAF
KGLD 100520Z 1006/1106 20007KT P6SM SCT030
     FM101000 17008KT 3SM BR BKN020
     FM101500 20008KT P6SM SCT020 SCT200
     FM102300 24006KT P6SM BKN100=

USA.gov is the U.S. government's official web portal to all federal, state and local government web resources and services.